Dibrugarh Airport
VEMN : now visible

Airfield :











YOU CAN JOIN US ON...

 
LOGIN :

Register | Disclaimer

   EN    FR    IT 

 









Legend :    VFR   Marginal VFR   IFR   Intensive IFR   Very Intensive IFR
Visi :
Ceiling :
>= 8 km
>= 3000ft
5 to 8 km
1000 to 3000 ft
1500m to 5 km
500 to 1000 ft
800 to 1500m
200 to 500 ft
< 800m
< 200 ft
Symbols :   Thunderstorms  Fog  Heavy snow  Heavy precipitations  Wind > 20 kt






- Airport Elevation : 362 ft
- IATA code : DIB


VEMN - Dibrugarh

CURRENT METAR :
  • 260030Z 17003KT 1500 RA FEW008 SCT018 FEW025CB OVC090 22/22 Q1006 TEMPO 0800 RA

EXPIRED METARs :
  • 260000Z 23003KT 1500 RA FEW008 SCT018 FEW025CB OVC090 22/22 Q1006 TEMPO 0800 RA

TAF TAF VEMN
Valid from the 26 at 00:00 until the 26 at 09:00 UTC


252300Z 2600/2609 00000KT 2500 -TSRA BR FEW010 SCT018 FEW025CB BKN090
BECMG 2606/2608 05007KT 4000 -RA BR SCT018 FEW025CB BKN100
VECF FIR / Asia



MET'MAP, your aeronautical weather chart ! - Copyright ORBIFLY December 2007 - Disclaimer

ORBIFLY MET'MAP TEAM :

Programming & Development : Alexandra Zaïnal
Concept & original design : Baudouin d'Aumeries
Assistance for programming : Marc-Olivier Méhu
Technical & hardware support : Manuel Goepfert

Contact : metmap@orbifly.com




SOURCES & CREDITS :

   NOAA       Earth
Advisory